Time;durP1;ratioP1;P1;durP2;ratioP2;P2;SDS_P1;SDS_P2;PMS_P1;PMS_P2;Temp;Humidity;BMP_temperature;BMP_pressure;BME280_temperature;BME280_humidity;BME280_pressure;Samples;Min_cycle;Max_cycle;Signal;HPM_P1;HPM_P2
2023/03/25 00:01:16;;;;;;;0.00;0.00;;;;;;;4.17;88.54;98571.19;5004329;28;20053;-70
2023/03/25 00:03:45;;;;;;;0.10;0.10;;;;;;;4.16;88.42;98577.69;5004559;28;20046;-69
2023/03/25 00:06:13;;;;;;;0.10;0.10;;;;;;;4.10;88.43;98571.41;5000787;28;20844;-69
2023/03/25 00:08:40;;;;;;;0.10;0.10;;;;;;;4.05;88.46;98568.69;4986195;28;20046;-69
2023/03/25 00:11:07;;;;;;;;;;;;;;;4.04;88.49;98573.28;5004366;28;20582;-68
2023/03/25 00:13:33;;;;;;;0.10;0.10;;;;;;;4.01;88.83;98579.22;5003455;28;19925;-69
2023/03/25 00:16:01;;;;;;;0.10;0.10;;;;;;;3.91;88.53;98568.34;4999804;28;20049;-68
2023/03/25 00:18:32;;;;;;;0.10;0.10;;;;;;;3.97;88.97;98591.63;5002847;28;20042;-69
2023/03/25 00:20:59;;;;;;;0.10;0.10;;;;;;;3.95;89.08;98575.66;5001460;28;20524;-69
2023/03/25 00:23:26;;;;;;;0.10;0.10;;;;;;;3.91;89.21;98571.06;5002397;28;20080;-68
2023/03/25 00:25:58;;;;;;;0.10;0.10;;;;;;;3.88;89.18;98569.69;5003002;28;20058;-69
2023/03/25 00:28:27;;;;;;;0.13;0.13;;;;;;;3.81;89.44;98558.25;4985623;28;20044;-69
2023/03/25 00:30:54;;;;;;;0.10;0.10;;;;;;;3.85;89.40;98551.28;4985453;28;20137;-69
2023/03/25 00:33:21;;;;;;;0.13;0.13;;;;;;;3.78;89.51;98551.50;5003973;28;20053;-69
2023/03/25 00:35:51;;;;;;;0.10;0.10;;;;;;;3.79;89.75;98553.13;5002343;28;20053;-68
2023/03/25 00:38:17;;;;;;;0.10;0.10;;;;;;;3.81;89.65;98539.34;4993519;28;20121;-69
2023/03/25 00:40:45;;;;;;;0.10;0.10;;;;;;;3.82;89.85;98540.97;4985336;28;20054;-69
2023/03/25 00:43:13;;;;;;;;;;;;;;;3.83;90.01;98531.78;4984453;28;20449;-69
2023/03/25 00:45:39;;;;;;;0.10;0.10;;;;;;;3.81;89.78;98536.63;4984137;28;19961;-69
2023/03/25 00:48:05;;;;;;;0.10;0.10;;;;;;;3.76;89.71;98529.31;4987656;28;20137;-69
2023/03/25 00:50:32;;;;;;;0.10;0.10;;;;;;;3.75;90.09;98519.59;4982703;28;20132;-68
2023/03/25 00:52:58;;;;;;;0.10;0.10;;;;;;;3.73;89.93;98523.63;4984920;28;20046;-69
2023/03/25 00:55:24;;;;;;;0.10;0.10;;;;;;;3.67;90.38;98515.47;4982243;28;20540;-68
2023/03/25 00:57:51;;;;;;;0.10;0.10;;;;;;;3.71;90.19;98526.56;4980454;28;20046;-69
2023/03/25 01:00:19;;;;;;;0.10;0.10;;;;;;;3.69;90.08;98518.72;4984446;28;20151;-68
2023/03/25 01:02:47;;;;;;;0.10;0.10;;;;;;;3.70;90.35;98519.53;4986482;28;20050;-68
2023/03/25 01:05:13;;;;;;;0.10;0.10;;;;;;;3.70;90.15;98516.81;4982969;28;20255;-69
2023/03/25 01:07:40;;;;;;;0.10;0.10;;;;;;;3.76;90.13;98520.38;4983741;28;20046;-69
2023/03/25 01:10:08;;;;;;;0.10;0.10;;;;;;;3.78;90.04;98512.81;4984587;28;20399;-68
2023/03/25 01:12:35;;;;;;;0.10;0.10;;;;;;;3.78;89.70;98507.41;4991467;28;20054;-69
2023/03/25 01:15:01;;;;;;;0.10;0.10;;;;;;;3.78;89.70;98513.66;5005626;28;20045;-69
2023/03/25 01:17:30;;;;;;;0.03;0.03;;;;;;;3.83;89.75;98497.44;5006281;28;20243;-69
2023/03/25 01:19:57;;;;;;;0.10;0.10;;;;;;;3.89;89.46;98494.75;5002508;28;20521;-69
2023/03/25 01:22:23;;;;;;;0.10;0.10;;;;;;;3.88;89.22;98488.53;4985285;28;20580;-69
2023/03/25 01:24:49;;;;;;;0.10;0.10;;;;;;;3.97;88.86;98495.06;4987134;28;20054;-68
2023/03/25 01:27:15;;;;;;;0.10;0.10;;;;;;;4.03;88.75;98487.00;4987467;28;20055;-69
2023/03/25 01:29:41;;;;;;;0.10;0.10;;;;;;;4.05;88.57;98484.84;4968353;28;20125;-68
2023/03/25 01:32:08;;;;;;;0.10;0.10;;;;;;;4.06;88.44;98483.75;4987368;28;20054;-69
2023/03/25 01:34:37;;;;;;;0.10;0.10;;;;;;;4.08;88.27;98476.19;4986967;28;20105;-69
2023/03/25 01:37:03;;;;;;;0.10;0.10;;;;;;;4.10;87.92;98480.25;4987836;28;20366;-68
2023/03/25 01:39:30;;;;;;;0.10;0.10;;;;;;;4.10;87.87;98482.97;4988894;28;20046;-68
2023/03/25 01:41:56;;;;;;;0.10;0.10;;;;;;;4.10;87.99;98474.84;4977366;28;20420;-68
2023/03/25 01:44:59;;;;;;;0.10;0.10;;;;;;;4.11;87.83;98476.47;5005956;28;20535;-68
2023/03/25 01:47:26;;;;;;;0.10;0.10;;;;;;;4.10;87.79;98474.84;4971655;28;20560;-68
2023/03/25 01:49:54;;;;;;;0.10;0.10;;;;;;;4.10;87.71;98460.50;5004512;28;20053;-67
2023/03/25 01:52:24;;;;;;;0.00;0.00;;;;;;;4.04;87.69;98450.75;5004552;28;20052;-68
2023/03/25 01:54:52;;;;;;;0.10;0.10;;;;;;;4.02;87.87;98452.91;5005802;28;20064;-69
2023/03/25 01:57:21;;;;;;;0.10;0.10;;;;;;;3.99;88.23;98446.13;5006614;28;20085;-68
2023/03/25 01:59:49;;;;;;;0.10;0.10;;;;;;;3.91;88.33;98441.25;5005570;28;20073;-68
2023/03/25 02:02:17;;;;;;;0.10;0.10;;;;;;;3.91;88.45;98443.94;5007513;28;20056;-68
2023/03/25 02:04:57;;;;;;;0.10;0.10;;;;;;;3.90;88.68;98429.59;5004297;28;20137;-68
2023/03/25 02:07:29;;;;;;;0.10;0.10;;;;;;;3.90;88.63;98418.78;5003141;28;20140;-68
2023/03/25 02:09:58;;;;;;;0.10;0.10;;;;;;;3.87;88.67;98407.66;4988340;28;20144;-68
2023/03/25 02:12:24;;;;;;;0.10;0.10;;;;;;;3.90;88.62;98424.19;5006624;28;20428;-68
2023/03/25 02:14:50;;;;;;;0.10;0.10;;;;;;;3.83;88.78;98419.03;4986149;28;20047;-67
2023/03/25 02:17:28;;;;;;;0.20;0.10;;;;;;;3.87;88.87;98419.31;4985650;28;20595;-68
2023/03/25 02:20:45;;;;;;;0.10;0.10;;;;;;;3.86;88.94;98422.28;4967698;28;20050;-68
2023/03/25 02:23:56;;;;;;;0.10;0.10;;;;;;;3.84;89.11;98417.16;4877419;29;20266;-68
2023/03/25 02:27:12;;;;;;;0.10;0.10;;;;;;;3.79;89.37;98427.91;4985299;28;20054;-68
2023/03/25 02:29:57;;;;;;;0.10;0.10;;;;;;;3.73;89.49;98416.25;4962244;28;20057;-68
2023/03/25 02:32:44;;;;;;;0.10;0.10;;;;;;;3.82;89.80;98433.63;4983960;28;20050;-68
2023/03/25 02:35:28;;;;;;;0.10;0.10;;;;;;;3.83;89.76;98426.34;4997113;28;20405;-67
2023/03/25 02:38:35;;;;;;;0.10;0.10;;;;;;;3.87;89.76;98413.91;5005028;28;20517;-69
2023/03/25 02:41:07;;;;;;;0.10;0.10;;;;;;;3.89;89.49;98383.88;4947202;28;20558;-68
2023/03/25 02:43:39;;;;;;;0.10;0.10;;;;;;;3.96;89.20;98384.47;4931750;28;20051;-73
2023/03/25 02:46:09;;;;;;;0.10;0.10;;;;;;;3.97;89.02;98380.66;4946507;28;20058;-73
2023/03/25 02:48:39;;;;;;;0.10;0.10;;;;;;;3.98;89.23;98376.88;4931522;28;20625;-73
2023/03/25 02:51:11;;;;;;;0.10;0.10;;;;;;;4.01;88.95;98376.34;4963237;28;20547;-73
2023/03/25 02:53:41;;;;;;;0.10;0.10;;;;;;;4.06;88.89;98372.84;4947765;28;20051;-72
2023/03/25 02:56:11;;;;;;;0.10;0.10;;;;;;;4.11;88.63;98370.16;4947009;28;20049;-73
2023/03/25 02:58:39;;;;;;;0.10;0.10;;;;;;;4.22;88.47;98374.50;4947117;28;20055;-73
2023/03/25 03:01:08;;;;;;;0.10;0.10;;;;;;;4.30;88.14;98365.06;4947154;28;20054;-73
2023/03/25 03:03:35;;;;;;;0.10;0.10;;;;;;;4.45;87.46;98361.56;4964691;28;20519;-72
2023/03/25 03:06:04;;;;;;;0.10;0.10;;;;;;;4.45;nan;98349.91;4915553;28;20158;-72
2023/03/25 03:08:59;;;;;;;0.10;0.10;;;;;;;4.46;86.66;98343.41;4931351;28;20490;-72
2023/03/25 03:11:30;;;;;;;0.20;0.10;;;;;;;4.65;86.34;98357.22;4979016;28;20517;-72
2023/03/25 03:14:13;;;;;;;0.10;0.10;;;;;;;4.68;85.84;98343.16;5005588;28;20054;-73
2023/03/25 03:16:48;;;;;;;0.10;0.10;;;;;;;4.74;85.57;98350.16;5005292;28;20045;-72
2023/03/25 03:19:30;;;;;;;0.10;0.10;;;;;;;4.80;85.22;98349.09;5004539;28;20587;-73
2023/03/25 03:22:02;;;;;;;0.10;0.10;;;;;;;4.82;84.91;98332.56;5004774;28;20060;-72
2023/03/25 03:24:35;;;;;;;0.10;0.10;;;;;;;4.83;85.04;98321.47;5003708;28;20061;-72
2023/03/25 03:27:10;;;;;;;0.10;0.10;;;;;;;4.89;84.65;98324.97;5004812;28;20471;-73
2023/03/25 03:29:43;;;;;;;0.10;0.10;;;;;;;4.89;84.62;98316.84;5004481;28;20068;-72
2023/03/25 03:32:12;;;;;;;0.10;0.10;;;;;;;4.96;84.46;98320.09;5006983;28;20050;-73
2023/03/25 03:34:45;;;;;;;0.10;0.10;;;;;;;5.03;84.50;98324.41;5005865;28;20061;-73
2023/03/25 03:37:15;;;;;;;0.10;0.10;;;;;;;5.07;84.47;98301.09;4988700;28;20060;-73
2023/03/25 03:39:45;;;;;;;0.10;0.10;;;;;;;4.96;84.43;98289.50;5004762;28;20472;-73
2023/03/25 03:42:17;;;;;;;0.10;0.10;;;;;;;5.06;84.23;98299.47;5005608;28;20056;-73
2023/03/25 03:44:49;;;;;;;0.10;0.10;;;;;;;5.01;84.21;98291.38;5005588;28;20494;-73
2023/03/25 03:47:20;;;;;;;0.10;0.10;;;;;;;5.13;84.20;98296.50;5005177;28;20066;-73
2023/03/25 03:49:52;;;;;;;0.10;0.10;;;;;;;5.15;84.00;98292.41;5003715;28;20045;-74
2023/03/25 03:52:24;;;;;;;0.10;0.10;;;;;;;5.21;84.00;98304.03;5002763;28;20045;-73
2023/03/25 03:54:56;;;;;;;0.10;0.10;;;;;;;5.27;83.75;98280.44;5005924;28;20073;-73
2023/03/25 03:57:26;;;;;;;0.10;0.10;;;;;;;5.23;83.58;98267.44;5003647;28;20058;-74
2023/03/25 03:59:58;;;;;;;0.10;0.10;;;;;;;5.33;83.39;98279.34;4999690;28;20049;-73
2023/03/25 04:02:31;;;;;;;0.10;0.10;;;;;;;5.35;83.21;98256.28;4984194;28;20046;-73
2023/03/25 04:04:59;;;;;;;0.10;0.10;;;;;;;5.44;83.27;98270.06;4983625;28;20148;-73
2023/03/25 04:07:37;;;;;;;0.10;0.10;;;;;;;5.53;82.77;98251.31;4984981;28;20046;-74
2023/03/25 04:10:13;;;;;;;0.10;0.10;;;;;;;5.60;82.68;98257.25;4964370;28;20050;-73
2023/03/25 04:12:43;;;;;;;0.10;0.10;;;;;;;5.71;81.98;98273.47;4985416;28;20050;-73
2023/03/25 04:15:10;;;;;;;0.10;0.10;;;;;;;5.71;81.81;98266.13;4987843;28;20160;-68
2023/03/25 04:17:36;;;;;;;0.10;0.10;;;;;;;5.69;81.52;98252.06;4983818;28;20090;-68
2023/03/25 04:20:12;;;;;;;0.10;0.10;;;;;;;5.70;81.82;98245.53;4983684;28;20085;-69
2023/03/25 04:22:44;;;;;;;0.10;0.10;;;;;;;5.75;81.88;98244.69;4983133;28;20044;-69
2023/03/25 04:25:12;;;;;;;0.10;0.10;;;;;;;5.79;81.55;98246.56;4984904;28;20061;-69
2023/03/25 04:27:39;;;;;;;0.10;0.10;;;;;;;5.81;81.36;98233.53;5003130;28;20054;-69
2023/03/25 04:30:07;;;;;;;0.17;0.17;;;;;;;5.81;81.18;98236.25;5002589;28;20108;-69
2023/03/25 04:32:33;;;;;;;0.10;0.10;;;;;;;5.82;81.27;98218.88;4995626;28;20047;-69
2023/03/25 04:34:59;;;;;;;0.10;0.10;;;;;;;5.91;81.18;98235.38;4983190;28;20213;-69
2023/03/25 04:37:27;;;;;;;0.10;0.10;;;;;;;5.93;80.95;98227.75;4982624;28;20054;-69
2023/03/25 04:39:54;;;;;;;0.10;0.10;;;;;;;5.97;80.97;98219.88;4981881;28;20549;-68
2023/03/25 04:42:24;;;;;;;;;;;;;;;6.02;80.88;98209.00;4985630;28;20510;-69
2023/03/25 04:44:50;;;;;;;0.10;0.10;;;;;;;6.06;80.45;98212.75;5019248;28;19979;-69
2023/03/25 04:47:21;;;;;;;0.10;0.10;;;;;;;6.08;80.48;98217.91;5005914;28;20042;-69
2023/03/25 04:49:47;;;;;;;0.10;0.10;;;;;;;6.14;80.32;98213.25;5003468;28;20140;-69
2023/03/25 04:52:15;;;;;;;0.10;0.10;;;;;;;6.12;80.42;98202.66;5007317;28;20050;-69
2023/03/25 04:54:41;;;;;;;0.10;0.10;;;;;;;6.17;80.22;98190.97;5004446;28;20125;-69
2023/03/25 04:57:07;;;;;;;0.10;0.10;;;;;;;6.26;80.13;98191.16;5003656;28;20580;-69
2023/03/25 04:59:35;;;;;;;0.10;0.10;;;;;;;6.31;79.91;98188.38;4986703;28;20069;-70
2023/03/25 05:02:04;;;;;;;0.10;0.10;;;;;;;6.32;79.81;98179.13;5009668;28;20082;-69
2023/03/25 05:04:31;;;;;;;0.10;0.10;;;;;;;6.36;79.60;98185.63;4998639;28;20038;-69
2023/03/25 05:06:57;;;;;;;0.10;0.10;;;;;;;6.31;79.46;98144.94;4989932;28;20054;-69
2023/03/25 05:09:23;;;;;;;0.10;0.10;;;;;;;6.48;79.22;98163.53;4994543;28;20245;-69
2023/03/25 05:11:51;;;;;;;0.10;0.10;;;;;;;6.45;78.91;98162.19;4986632;28;20046;-69
2023/03/25 05:14:19;;;;;;;0.20;0.20;;;;;;;6.52;79.10;98162.66;4988568;28;20050;-69
2023/03/25 05:16:47;;;;;;;0.10;0.10;;;;;;;6.52;79.12;98165.38;5004833;28;20062;-73
2023/03/25 05:19:17;;;;;;;0.10;0.10;;;;;;;6.56;78.78;98194.66;5008169;28;20537;-74
2023/03/25 05:21:44;;;;;;;0.10;0.10;;;;;;;6.57;78.81;98171.84;5007563;28;20135;-73
2023/03/25 05:24:12;;;;;;;0.10;0.10;;;;;;;6.56;78.79;98162.91;5005188;28;20136;-74
2023/03/25 05:26:40;;;;;;;0.10;0.10;;;;;;;6.55;79.10;98182.19;4973727;28;20161;-74
2023/03/25 05:29:07;;;;;;;;;;;;;;;6.52;79.23;98173.53;4986147;28;20345;-74
2023/03/25 05:31:35;;;;;;;0.13;0.13;;;;;;;6.51;79.44;98200.94;4970460;28;19964;-74
2023/03/25 05:34:05;;;;;;;0.10;0.10;;;;;;;6.48;79.43;98187.97;4986890;28;20425;-73
2023/03/25 05:36:31;;;;;;;0.10;0.10;;;;;;;6.42;79.57;98187.19;4995287;28;20044;-73
2023/03/25 05:38:58;;;;;;;0.10;0.10;;;;;;;6.38;79.97;98195.09;5008485;28;20049;-74
2023/03/25 05:41:31;;;;;;;0.10;0.10;;;;;;;6.40;80.09;98197.53;4991958;28;20049;-73
2023/03/25 05:43:59;;;;;;;0.20;0.20;;;;;;;6.44;79.92;98163.28;5007909;28;20045;-73
2023/03/25 05:46:27;;;;;;;0.13;0.13;;;;;;;6.68;79.16;98167.94;5008201;28;20500;-73
2023/03/25 05:48:56;;;;;;;0.10;0.10;;;;;;;6.73;79.03;98172.50;5008878;28;20096;-74
2023/03/25 05:51:25;;;;;;;0.10;0.10;;;;;;;6.60;79.07;98144.09;5008020;28;20136;-69
2023/03/25 05:53:52;;;;;;;0.15;0.15;;;;;;;6.64;79.15;98134.31;5004681;28;20453;-70
2023/03/25 05:56:20;;;;;;;0.10;0.10;;;;;;;6.67;79.32;98139.16;5005080;28;20420;-69
2023/03/25 05:58:47;;;;;;;0.10;0.10;;;;;;;6.79;79.53;98146.88;5004316;28;20157;-69
2023/03/25 06:01:14;;;;;;;;;;;;;;;6.86;79.27;98152.75;5006083;28;20076;-69
2023/03/25 06:03:41;;;;;;;0.13;0.13;;;;;;;6.90;79.11;98164.69;5004374;28;19925;-70
2023/03/25 06:06:12;;;;;;;0.10;0.10;;;;;;;6.93;79.18;98149.69;5002680;28;20041;-69
2023/03/25 06:08:40;;;;;;;0.20;0.20;;;;;;;7.01;79.04;98159.09;4974342;28;20042;-69
2023/03/25 06:11:08;;;;;;;;;;;;;;;7.14;79.00;98163.03;4992670;28;20104;-74
2023/03/25 06:13:37;;;;;;;0.20;0.20;;;;;;;7.28;78.38;98158.50;4967659;28;19926;-74
2023/03/25 06:16:04;;;;;;;0.20;0.20;;;;;;;7.36;77.81;98155.09;4994539;28;20074;-73
2023/03/25 06:18:31;;;;;;;0.20;0.20;;;;;;;7.43;77.73;98132.97;4993622;28;20054;-73
2023/03/25 06:21:00;;;;;;;0.20;0.20;;;;;;;7.67;77.17;98151.13;5002410;28;20552;-74
2023/03/25 06:23:27;;;;;;;0.20;0.20;;;;;;;7.89;76.56;98146.97;4996536;28;20510;-70
2023/03/25 06:25:54;;;;;;;0.20;0.20;;;;;;;8.12;75.36;98145.22;4977475;28;20050;-69
2023/03/25 06:28:22;;;;;;;0.20;0.20;;;;;;;8.35;74.66;98143.44;5003487;28;20465;-69
2023/03/25 06:30:48;;;;;;;0.22;0.22;;;;;;;8.42;73.79;98139.50;4992744;28;20070;-73
2023/03/25 06:33:18;;;;;;;0.20;0.20;;;;;;;8.45;74.19;98150.63;5001651;28;20080;-73
2023/03/25 06:35:48;;;;;;;0.20;0.20;;;;;;;8.39;74.31;98119.16;4995353;28;20057;-73
2023/03/25 06:38:14;;;;;;;0.17;0.17;;;;;;;8.33;74.61;98129.31;4992754;28;20054;-73
2023/03/25 06:41:02;;;;;;;0.20;0.20;;;;;;;8.27;74.99;98121.56;4642413;28;10000189;-73
2023/03/25 06:43:29;;;;;;;0.20;0.20;;;;;;;8.20;75.55;98124.66;4644110;28;10000490;-73
2023/03/25 06:46:18;;;;;;;0.20;0.20;;;;;;;8.23;75.68;98127.59;4988685;28;20517;-73
2023/03/25 06:49:13;;;;;;;0.10;0.10;;;;;;;8.19;75.59;98126.56;4990417;28;20591;-73
2023/03/25 06:51:40;;;;;;;0.10;0.10;;;;;;;8.16;76.26;98129.09;4989544;28;20054;-73
2023/03/25 06:54:06;;;;;;;0.10;0.10;;;;;;;8.11;76.87;98150.94;4997267;28;20077;-72
2023/03/25 06:56:33;;;;;;;0.10;0.10;;;;;;;8.04;77.76;98133.09;4987022;28;20064;-74
2023/03/25 06:58:59;;;;;;;;;;;;;;;7.98;78.87;98126.16;4991372;28;20046;-73
2023/03/25 07:01:26;;;;;;;0.10;0.10;;;;;;;7.94;79.53;98136.81;5001486;28;19971;-73
2023/03/25 07:03:52;;;;;;;0.10;0.10;;;;;;;7.87;79.89;98109.16;4961298;28;20576;-69
2023/03/25 07:06:21;;;;;;;0.10;0.10;;;;;;;7.88;80.74;98120.88;4976891;28;20518;-70
2023/03/25 07:08:47;;;;;;;0.10;0.10;;;;;;;7.82;81.33;98131.03;4995591;28;20050;-69
2023/03/25 07:11:15;;;;;;;0.10;0.10;;;;;;;7.77;81.53;98115.59;5001097;28;20525;-69
2023/03/25 07:13:43;;;;;;;0.20;0.20;;;;;;;7.72;81.98;98118.41;4995196;28;20108;-73
2023/03/25 07:16:10;;;;;;;0.10;0.10;;;;;;;7.71;81.89;98124.13;4975086;28;20042;-73
2023/03/25 07:18:37;;;;;;;;;;;;;;;7.70;82.15;98123.31;4992930;28;20053;-69
2023/03/25 07:21:04;;;;;;;0.17;0.17;;;;;;;7.73;82.17;98124.66;4998244;28;20285;-68
2023/03/25 07:23:48;;;;;;;0.13;0.13;;;;;;;7.74;82.20;98120.84;4992074;28;20532;-69
2023/03/25 07:26:15;;;;;;;0.20;0.20;;;;;;;7.75;82.35;98127.88;4993739;28;20049;-73
2023/03/25 07:29:19;;;;;;;0.20;0.20;;;;;;;7.79;82.24;98126.19;4990488;28;20541;-75
2023/03/25 07:32:05;;;;;;;0.10;0.10;;;;;;;7.81;82.08;98121.25;4982615;28;20428;-74
2023/03/25 07:34:31;;;;;;;0.10;0.10;;;;;;;7.80;82.35;98125.06;4986798;28;20050;-74
2023/03/25 07:36:58;;;;;;;0.10;0.10;;;;;;;7.74;82.28;98110.75;4988573;28;20064;-75
2023/03/25 07:39:25;;;;;;;0.10;0.10;;;;;;;7.78;82.44;98117.19;4990023;28;20057;-74
2023/03/25 07:41:51;;;;;;;0.10;0.10;;;;;;;7.76;82.75;98122.13;4993722;28;20051;-74
2023/03/25 07:44:29;;;;;;;0.10;0.10;;;;;;;7.70;82.68;98101.56;4988155;28;20065;-74
2023/03/25 07:46:56;;;;;;;0.10;0.10;;;;;;;7.83;82.47;98113.59;4985461;28;20042;-74
2023/03/25 07:49:41;;;;;;;0.10;0.10;;;;;;;7.85;82.57;98121.47;4992162;28;20061;-73
2023/03/25 07:52:07;;;;;;;0.10;0.10;;;;;;;7.87;82.61;98113.81;4992465;28;20045;-74
2023/03/25 07:57:18;;;;;;;0.10;0.10;;;;;;;7.87;82.53;98116.53;4987530;28;20054;-74
2023/03/25 07:59:46;;;;;;;0.10;0.10;;;;;;;7.90;82.48;98113.22;4984522;28;20529;-74
2023/03/25 08:02:13;;;;;;;0.10;0.10;;;;;;;7.96;82.67;98112.03;4990393;28;20255;-74
2023/03/25 08:04:39;;;;;;;0.10;0.10;;;;;;;7.84;82.67;98114.41;4985776;28;20268;-74
2023/03/25 08:07:06;;;;;;;0.10;0.10;;;;;;;7.90;82.79;98113.22;4985092;28;20108;-74
2023/03/25 08:09:33;;;;;;;0.10;0.10;;;;;;;7.91;82.59;98104.75;4987885;28;20612;-74
2023/03/25 08:11:59;;;;;;;0.20;0.20;;;;;;;8.07;82.70;98118.09;4966236;28;20046;-74
2023/03/25 08:14:26;;;;;;;0.10;0.10;;;;;;;8.08;82.99;98109.63;4986738;28;20045;-74
2023/03/25 08:17:12;;;;;;;0.10;0.10;;;;;;;8.05;82.97;98115.66;4988506;28;20047;-74
2023/03/25 08:19:38;;;;;;;0.10;0.10;;;;;;;8.05;83.17;98120.31;4988205;28;20046;-74
2023/03/25 08:22:04;;;;;;;0.10;0.10;;;;;;;8.05;83.34;98145.59;4990584;28;20077;-73
2023/03/25 08:25:07;;;;;;;0.10;0.10;;;;;;;7.97;83.57;98150.94;4989129;28;20088;-74
2023/03/25 08:27:52;;;;;;;0.10;0.10;;;;;;;7.91;83.80;98139.31;4993088;28;20095;-74
2023/03/25 08:30:18;;;;;;;0.15;0.10;;;;;;;7.99;84.48;98156.88;5001835;28;20042;-69
2023/03/25 08:32:53;;;;;;;0.10;0.10;;;;;;;7.94;84.85;98155.03;4992095;28;20042;-69
2023/03/25 08:35:20;;;;;;;0.10;0.10;;;;;;;7.91;85.37;98152.91;4988951;28;20588;-69
2023/03/25 08:37:46;;;;;;;0.10;0.10;;;;;;;7.85;85.90;98152.19;4988086;28;20153;-68
2023/03/25 08:40:18;;;;;;;0.10;0.10;;;;;;;7.87;86.38;98143.75;4993819;28;20065;-69
2023/03/25 08:42:45;;;;;;;0.10;0.10;;;;;;;7.87;86.57;98141.81;4990426;28;20073;-69
2023/03/25 08:45:31;;;;;;;0.10;0.10;;;;;;;7.86;86.83;98144.84;4987929;28;20050;-69
2023/03/25 08:48:00;;;;;;;0.10;0.10;;;;;;;7.87;86.98;98144.53;4999473;28;20653;-69
2023/03/25 08:50:26;;;;;;;0.10;0.10;;;;;;;7.90;87.51;98156.75;4991551;28;20045;-69
2023/03/25 08:53:11;;;;;;;0.20;0.20;;;;;;;7.88;87.53;98138.00;4992674;28;20054;-69
2023/03/25 08:55:57;;;;;;;0.20;0.20;;;;;;;7.97;87.35;98153.66;4988884;28;20050;-69
2023/03/25 09:02:05;;;;;;;0.10;0.10;;;;;;;8.03;86.89;98156.00;4990058;28;20074;-69
2023/03/25 09:04:33;;;;;;;0.10;0.10;;;;;;;8.05;86.94;98170.09;4993854;28;20160;-74
2023/03/25 09:07:00;;;;;;;0.10;0.10;;;;;;;8.02;87.03;98156.28;4989154;28;20529;-75
2023/03/25 09:09:28;;;;;;;0.10;0.10;;;;;;;7.99;87.29;98154.16;4978503;28;20045;-69
2023/03/25 09:11:54;;;;;;;0.10;0.10;;;;;;;8.06;87.12;98160.84;4992280;28;20129;-70
2023/03/25 09:14:20;;;;;;;0.20;0.20;;;;;;;8.00;86.97;98139.44;4992797;28;20038;-70
2023/03/25 09:16:47;;;;;;;0.28;0.20;;;;;;;8.02;86.88;98135.31;4972064;28;20069;-70
2023/03/25 09:19:36;;;;;;;0.10;0.10;;;;;;;8.25;86.57;98153.72;4971044;28;20048;-69
2023/03/25 09:22:04;;;;;;;0.10;0.10;;;;;;;8.28;86.43;98143.03;4982508;28;20356;-70
2023/03/25 09:24:32;;;;;;;0.10;0.10;;;;;;;8.26;86.21;98153.41;5000865;28;20049;-69
2023/03/25 09:26:59;;;;;;;0.20;0.20;;;;;;;8.23;86.67;98140.41;4994603;28;20049;-69
2023/03/25 09:29:26;;;;;;;0.10;0.10;;;;;;;8.15;86.74;98135.66;4988706;28;20077;-69
2023/03/25 09:31:52;;;;;;;0.20;0.20;;;;;;;8.28;86.78;98147.66;4993563;28;20062;-74
2023/03/25 09:34:19;;;;;;;0.10;0.10;;;;;;;8.35;86.86;98158.97;4997920;28;20049;-75
2023/03/25 09:36:46;;;;;;;0.10;0.10;;;;;;;8.37;86.51;98154.84;5002899;28;20420;-70
2023/03/25 09:39:12;;;;;;;0.10;0.10;;;;;;;8.37;86.23;98156.78;5007434;28;20053;-74
2023/03/25 09:42:03;;;;;;;0.10;0.10;;;;;;;8.35;86.60;98164.41;4996258;28;20040;-70
2023/03/25 09:44:34;;;;;;;0.10;0.10;;;;;;;8.32;86.84;98162.28;5003802;28;20046;-70
2023/03/25 09:47:02;;;;;;;0.20;0.20;;;;;;;8.33;86.73;98181.06;5005098;28;20428;-75
2023/03/25 09:49:36;;;;;;;0.20;0.20;;;;;;;8.42;86.99;98175.75;4987680;28;20054;-74
2023/03/25 09:52:10;;;;;;;0.10;0.10;;;;;;;8.51;86.01;98197.66;5002911;28;20050;-75
2023/03/25 09:55:13;;;;;;;0.20;0.20;;;;;;;8.60;85.80;98187.72;5001811;28;20042;-76
2023/03/25 09:58:01;;;;;;;0.17;0.17;;;;;;;8.68;85.52;98169.03;5002063;28;20124;-75
2023/03/25 10:00:28;;;;;;;0.20;0.20;;;;;;;8.79;84.89;98173.19;5005491;28;20061;-75
2023/03/25 10:03:03;;;;;;;0.20;0.20;;;;;;;8.91;84.23;98167.22;4989716;28;20308;-75
2023/03/25 10:06:04;;;;;;;0.20;0.20;;;;;;;9.04;83.90;98173.75;5003855;28;20050;-75
2023/03/25 10:08:43;;;;;;;0.13;0.13;;;;;;;9.12;83.26;98178.50;4985687;28;20050;-74
2023/03/25 10:11:17;;;;;;;0.10;0.10;;;;;;;9.11;83.07;98174.16;4969417;28;20465;-70
2023/03/25 10:13:50;;;;;;;0.10;0.10;;;;;;;9.04;83.35;98169.13;5004680;28;20052;-70
2023/03/25 10:16:25;;;;;;;0.10;0.10;;;;;;;8.95;83.77;98176.41;5004450;28;20046;-70
2023/03/25 10:19:04;;;;;;;0.20;0.20;;;;;;;8.97;84.06;98176.91;5003465;28;20589;-71
2023/03/25 10:21:55;;;;;;;0.20;0.20;;;;;;;9.12;83.67;98166.78;4989210;28;20082;-70
2023/03/25 10:24:43;;;;;;;0.20;0.20;;;;;;;9.21;82.98;98154.06;4988203;28;20047;-70
2023/03/25 10:27:19;;;;;;;0.20;0.20;;;;;;;9.40;82.12;98166.75;4985594;28;20046;-70
2023/03/25 10:30:04;;;;;;;0.20;0.20;;;;;;;9.36;81.99;98178.28;4985437;28;20054;-70
2023/03/25 10:32:35;;;;;;;0.10;0.10;;;;;;;9.42;81.75;98180.88;4987093;28;20039;-70
2023/03/25 10:35:05;;;;;;;0.20;0.20;;;;;;;9.35;81.86;98179.38;4970565;28;20050;-75
2023/03/25 10:37:38;;;;;;;0.20;0.20;;;;;;;9.40;82.17;98189.38;4990067;28;20061;-69
2023/03/25 10:40:15;;;;;;;0.10;0.10;;;;;;;9.29;82.38;98193.44;5004266;28;20042;-69
2023/03/25 10:42:54;;;;;;;0.10;0.10;;;;;;;9.32;82.42;98176.44;4988699;28;20069;-70
2023/03/25 10:45:40;;;;;;;0.20;0.20;;;;;;;9.27;82.85;98187.47;4984666;28;20054;-70
2023/03/25 10:48:27;;;;;;;0.10;0.10;;;;;;;9.14;83.25;98178.22;5000224;28;20845;-69
2023/03/25 10:51:02;;;;;;;0.10;0.10;;;;;;;9.06;83.87;98177.81;5004632;28;20081;-69
2023/03/25 10:53:29;;;;;;;0.10;0.10;;;;;;;9.05;84.24;98183.56;4989065;28;20050;-70
2023/03/25 10:56:05;;;;;;;0.20;0.20;;;;;;;8.95;84.23;98176.41;4985873;28;20086;-70
2023/03/25 10:58:34;;;;;;;0.10;0.10;;;;;;;9.10;84.29;98185.38;4982701;28;20589;-69
2023/03/25 11:01:10;;;;;;;0.20;0.20;;;;;;;9.11;84.01;98176.06;4984025;28;20050;-70
2023/03/25 11:03:39;;;;;;;0.10;0.10;;;;;;;9.25;83.88;98178.81;4985482;28;20046;-70
2023/03/25 11:06:06;;;;;;;0.13;0.13;;;;;;;9.34;83.65;98169.59;4988602;28;20304;-70
2023/03/25 11:08:32;;;;;;;0.10;0.10;;;;;;;9.36;83.07;98174.72;5003870;28;20060;-70
2023/03/25 11:11:01;;;;;;;0.10;0.10;;;;;;;9.43;83.16;98180.59;5004490;28;20050;-70
2023/03/25 11:13:28;;;;;;;0.13;0.13;;;;;;;9.37;83.25;98173.63;5006000;28;20513;-69
2023/03/25 11:16:01;;;;;;;0.10;0.10;;;;;;;9.38;83.22;98180.69;4989245;28;20514;-69
2023/03/25 11:18:30;;;;;;;0.10;0.10;;;;;;;9.39;83.49;98185.03;4985421;28;20050;-69
2023/03/25 11:21:00;;;;;;;0.15;0.15;;;;;;;9.36;83.27;98182.91;5003008;28;20096;-70
2023/03/25 11:23:30;;;;;;;0.10;0.10;;;;;;;9.40;83.47;98181.19;5006313;28;20053;-69
2023/03/25 11:26:05;;;;;;;0.10;0.10;;;;;;;9.38;83.34;98180.69;5001171;28;20089;-70
2023/03/25 11:31:24;;;;;;;0.10;0.10;;;;;;;9.40;83.55;98191.28;5006290;28;20042;-69
2023/03/25 11:34:04;;;;;;;0.10;0.10;;;;;;;9.31;83.92;98167.47;5005980;28;20057;-69
2023/03/25 11:36:36;;;;;;;0.10;0.10;;;;;;;9.38;83.93;98190.78;4998685;28;20433;-70
2023/03/25 11:39:14;;;;;;;0.10;0.10;;;;;;;9.32;83.85;98174.56;4994178;28;20164;-76
2023/03/25 11:41:42;;;;;;;0.10;0.10;;;;;;;9.32;84.01;98173.72;4995422;28;20062;-73
2023/03/25 11:44:22;;;;;;;0.10;0.10;;;;;;;9.32;84.26;98190.91;5000221;28;20053;-74
2023/03/25 11:46:51;;;;;;;0.10;0.10;;;;;;;9.29;84.29;98166.16;5016513;28;20103;-69
2023/03/25 11:49:21;;;;;;;0.10;0.10;;;;;;;9.38;84.37;98172.53;4996259;28;20050;-70
2023/03/25 11:52:14;;;;;;;0.10;0.10;;;;;;;9.34;84.39;98176.94;4984571;28;20077;-69
2023/03/25 11:55:00;;;;;;;0.20;0.20;;;;;;;9.27;84.50;98193.72;5006204;28;20085;-69
2023/03/25 11:57:36;;;;;;;0.10;0.10;;;;;;;9.22;84.91;98181.03;5002513;28;20641;-69
2023/03/25 12:00:13;;;;;;;0.10;0.10;;;;;;;9.21;85.15;98193.06;4999883;28;20107;-69
2023/03/25 12:02:39;;;;;;;0.10;0.10;;;;;;;9.21;85.38;98186.78;5001404;28;20056;-69
2023/03/25 12:05:12;;;;;;;0.10;0.10;;;;;;;9.24;85.13;98188.09;5003934;28;20079;-69
2023/03/25 12:07:41;;;;;;;0.10;0.10;;;;;;;9.17;85.16;98183.84;5003614;28;20050;-69
2023/03/25 12:10:16;;;;;;;0.10;0.10;;;;;;;9.18;85.63;98198.31;4999061;28;20054;-69
2023/03/25 12:12:52;;;;;;;0.10;0.10;;;;;;;9.13;85.78;98191.03;5000604;28;20320;-69
2023/03/25 12:15:40;;;;;;;0.10;0.10;;;;;;;9.14;86.06;98189.91;4985170;28;20070;-69